createdAt,value
2023-03-14T00:00:33.016Z,36
2023-03-14T00:15:32.924Z,37
2023-03-14T00:30:32.302Z,37
2023-03-14T00:45:32.421Z,37
2023-03-14T01:00:32.617Z,38
2023-03-14T01:15:32.394Z,38
2023-03-14T01:30:32.828Z,38
2023-03-14T01:45:32.810Z,38
2023-03-14T02:00:33.004Z,39
2023-03-14T02:15:32.355Z,39
2023-03-14T02:30:32.709Z,39
2023-03-14T02:45:32.930Z,39
2023-03-14T03:00:32.667Z,39
2023-03-14T03:15:32.728Z,39
2023-03-14T03:30:33.112Z,39
2023-03-14T03:45:32.587Z,39
2023-03-14T04:00:33.050Z,39
2023-03-14T04:15:32.599Z,39
2023-03-14T04:30:33.000Z,38
2023-03-14T04:45:32.102Z,38
2023-03-14T05:00:32.571Z,38
2023-03-14T05:15:33.189Z,38
2023-03-14T05:30:32.678Z,38
2023-03-14T05:45:35.646Z,38
2023-03-14T06:00:35.565Z,38
2023-03-14T06:15:32.686Z,38
2023-03-14T06:30:35.389Z,38
2023-03-14T06:45:32.067Z,38
2023-03-14T07:00:37.250Z,37
2023-03-14T07:15:33.205Z,37
2023-03-14T07:30:35.027Z,37
2023-03-14T07:45:32.918Z,37
2023-03-14T08:00:37.139Z,37
2023-03-14T08:15:32.165Z,37
2023-03-14T08:30:32.934Z,37
2023-03-14T08:45:33.041Z,37
2023-03-14T09:00:36.795Z,36
2023-03-14T09:15:32.198Z,36
2023-03-14T09:30:32.418Z,36
2023-03-14T09:45:32.191Z,36
2023-03-14T10:00:32.707Z,36
2023-03-14T10:15:32.154Z,36
2023-03-14T10:30:32.858Z,36
2023-03-14T10:45:32.615Z,36
2023-03-14T11:00:35.376Z,36
2023-03-14T11:15:33.069Z,35
2023-03-14T11:30:33.585Z,35
2023-03-14T11:45:32.920Z,35
2023-03-14T12:00:36.581Z,35
2023-03-14T12:15:32.911Z,34
2023-03-14T12:30:32.536Z,34
2023-03-14T12:45:32.799Z,34
2023-03-14T13:00:35.256Z,34
2023-03-14T13:15:32.833Z,34
2023-03-14T13:30:34.191Z,34
2023-03-14T13:45:33.390Z,34
2023-03-14T14:00:34.329Z,34
2023-03-14T14:15:32.861Z,35
2023-03-14T14:30:34.347Z,35
2023-03-14T14:45:32.775Z,35
2023-03-14T15:00:36.733Z,35
2023-03-14T15:15:32.536Z,35
2023-03-14T15:30:33.436Z,35
2023-03-14T15:45:32.903Z,34
2023-03-14T16:00:36.944Z,34
2023-03-14T16:15:32.482Z,34
2023-03-14T16:30:36.164Z,34
2023-03-14T16:45:32.784Z,34
2023-03-14T17:00:38.616Z,33
2023-03-14T17:15:32.736Z,33
2023-03-14T17:30:34.500Z,32
2023-03-14T17:45:33.402Z,32
2023-03-14T18:00:37.733Z,31
2023-03-14T18:15:33.062Z,31
2023-03-14T18:30:34.870Z,31
2023-03-14T18:45:32.278Z,30
2023-03-14T19:00:36.961Z,30
2023-03-14T19:15:32.378Z,30
2023-03-14T19:30:34.377Z,30
2023-03-14T19:45:36.939Z,30
2023-03-14T20:00:35.862Z,30
2023-03-14T20:15:32.866Z,30
2023-03-14T20:30:34.205Z,30
2023-03-14T20:45:32.437Z,31
2023-03-14T21:00:32.604Z,31
2023-03-14T21:15:32.044Z,31
2023-03-14T21:30:32.489Z,31
2023-03-14T21:45:32.999Z,31
2023-03-14T22:00:33.653Z,31
2023-03-14T22:15:32.080Z,31
2023-03-14T22:30:32.679Z,31
2023-03-14T22:45:33.040Z,31
2023-03-14T23:00:32.864Z,31
2023-03-14T23:15:32.253Z,31
2023-03-14T23:30:33.167Z,31
2023-03-14T23:45:32.880Z,30
